Time;durP1;ratioP1;P1;durP2;ratioP2;P2;SDS_P1;SDS_P2;PMS_P1;PMS_P2;Temp;Humidity;BMP_temperature;BMP_pressure;BME280_temperature;BME280_humidity;BME280_pressure;Samples;Min_cycle;Max_cycle;Signal;HPM_P1;HPM_P2
2021/03/24 00:01:52;;;;;;;4.33;2.40;;;;;;;-0.22;53.95;99270.03;1729066;83;21177;-38
2021/03/24 00:04:22;;;;;;;4.97;2.70;;;;;;;-0.24;53.97;99266.09;1760761;81;21124;-39
2021/03/24 00:06:51;;;;;;;5.40;2.70;;;;;;;-0.28;54.13;99267.73;1761112;81;21156;-38
2021/03/24 00:09:19;;;;;;;5.50;2.55;;;;;;;-0.30;54.18;99263.25;1760872;81;21377;-39
2021/03/24 00:11:48;;;;;;;;;;;;;;;-0.35;54.31;99265.98;1763411;81;21153;-39
2021/03/24 00:14:17;;;;;;;4.17;2.55;;;;;;;-0.38;54.31;99263.88;1728988;83;20219;-38
2021/03/24 00:16:48;;;;;;;4.75;2.62;;;;;;;-0.47;54.72;99261.09;1760967;81;21654;-39
2021/03/24 00:19:16;;;;;;;2.52;1.90;;;;;;;-0.45;54.59;99265.60;1779605;80;21695;-39
2021/03/24 00:21:46;;;;;;;5.05;2.05;;;;;;;-0.41;54.65;99265.27;1757840;81;21152;-39
2021/03/24 00:24:16;;;;;;;4.42;2.10;;;;;;;-0.37;54.59;99265.47;1729040;82;21361;-39
2021/03/24 00:26:44;;;;;;;2.80;2.00;;;;;;;-0.40;54.46;99260.73;1760885;81;21170;-39
2021/03/24 00:29:12;;;;;;;2.70;1.90;;;;;;;-0.45;54.62;99267.73;1760854;81;21139;-38
2021/03/24 00:31:40;;;;;;;3.72;1.92;;;;;;;-0.47;54.69;99275.73;1736697;81;21141;-38
2021/03/24 00:34:08;;;;;;;3.58;2.00;;;;;;;-0.53;55.00;99276.34;1733748;82;21133;-38
2021/03/24 00:36:36;;;;;;;3.22;1.92;;;;;;;-0.54;54.76;99269.46;1733781;82;22020;-38
2021/03/24 00:39:04;;;;;;;5.17;2.10;;;;;;;-0.55;54.67;99277.19;1733666;82;21205;-38
2021/03/24 00:41:32;;;;;;;3.42;1.98;;;;;;;-0.53;54.64;99277.67;1733652;82;21197;-38
2021/03/24 00:44:01;;;;;;;4.22;1.77;;;;;;;-0.56;54.70;99282.26;1733747;82;21197;-39
2021/03/24 00:46:29;;;;;;;3.55;1.80;;;;;;;-0.57;54.67;99293.19;1761691;81;21597;-38
2021/03/24 00:48:56;;;;;;;4.47;2.08;;;;;;;-0.59;54.85;99284.17;1764148;81;21273;-38
2021/03/24 00:51:25;;;;;;;4.22;2.33;;;;;;;-0.57;54.91;99293.98;1764081;81;21158;-38
2021/03/24 00:53:53;;;;;;;3.25;1.77;;;;;;;-0.60;54.89;99294.56;1756162;80;21162;-38
2021/03/24 00:56:22;;;;;;;3.27;2.12;;;;;;;-0.58;54.84;99298.28;1733644;82;21161;-39
2021/03/24 00:58:50;;;;;;;2.53;1.47;;;;;;;-0.54;54.84;99296.09;1703677;82;21742;-38
2021/03/24 01:01:18;;;;;;;3.52;1.95;;;;;;;-0.53;54.77;99300.31;1733662;82;21428;-39
2021/03/24 01:03:46;;;;;;;2.85;1.80;;;;;;;-0.53;54.62;99305.64;1733609;82;21079;-39
2021/03/24 01:06:14;;;;;;;2.67;1.55;;;;;;;-0.57;54.69;99305.96;1733748;82;21202;-38
2021/03/24 01:09:40;;;;;;;3.30;1.98;;;;;;;-0.52;54.71;99303.77;1775587;79;22384;-39
2021/03/24 01:12:10;;;;;;;3.50;1.67;;;;;;;-0.57;54.85;99305.96;1748480;82;21111;-38
2021/03/24 01:14:38;;;;;;;2.83;1.85;;;;;;;-0.57;54.61;99309.16;1748554;82;21264;-38
2021/03/24 01:17:09;;;;;;;3.10;1.80;;;;;;;-0.58;54.58;99304.38;1748503;82;21083;-38
2021/03/24 01:19:37;;;;;;;4.10;1.90;;;;;;;-0.59;54.81;99307.34;1748576;82;21553;-39
2021/03/24 01:22:05;;;;;;;3.77;2.00;;;;;;;-0.60;54.85;99315.87;1748438;82;21597;-38
2021/03/24 01:24:33;;;;;;;3.27;1.82;;;;;;;-0.62;54.89;99319.34;1748516;82;20965;-39
2021/03/24 01:27:04;;;;;;;3.35;1.82;;;;;;;-0.63;54.86;99321.75;1748563;82;21391;-39
2021/03/24 01:29:32;;;;;;;2.87;1.47;;;;;;;-0.63;54.90;99316.42;1748549;82;28379;-38
2021/03/24 01:32:00;;;;;;;3.52;1.75;;;;;;;-0.62;55.02;99315.88;1748345;82;21028;-38
2021/03/24 01:34:28;;;;;;;3.22;1.67;;;;;;;-0.65;55.00;99320.46;1695730;82;21625;-38
2021/03/24 01:36:57;;;;;;;2.27;1.55;;;;;;;-0.69;55.14;99328.23;1748386;82;21179;-38
2021/03/24 01:39:25;;;;;;;2.35;1.52;;;;;;;-0.67;55.01;99322.61;1748353;82;21252;-38
2021/03/24 01:41:53;;;;;;;2.75;1.50;;;;;;;-0.62;54.94;99330.53;1748349;82;21201;-39
2021/03/24 01:44:21;;;;;;;2.12;1.60;;;;;;;-0.63;54.85;99325.73;1746937;82;21186;-38
2021/03/24 01:46:49;;;;;;;3.35;1.70;;;;;;;-0.60;54.71;99332.38;1718546;83;21039;-38
2021/03/24 01:49:33;;;;;;;2.10;1.42;;;;;;;-0.59;54.86;99333.44;1718559;83;21150;-38
2021/03/24 01:52:06;;;;;;;3.67;1.80;;;;;;;-0.57;54.67;99333.92;1718624;83;21410;-38
2021/03/24 01:54:38;;;;;;;3.95;1.70;;;;;;;-0.60;54.74;99339.83;1718598;83;21120;-39
2021/03/24 01:57:12;;;;;;;3.42;1.62;;;;;;;-0.59;54.87;99344.08;1718649;83;21162;-39
2021/03/24 01:59:40;;;;;;;2.25;1.60;;;;;;;-0.63;54.99;99337.72;1718588;83;21087;-38
2021/03/24 02:02:15;;;;;;;3.15;1.70;;;;;;;-0.63;54.97;99343.61;1718467;83;21180;-38
2021/03/24 02:04:43;;;;;;;2.75;1.70;;;;;;;-0.64;55.15;99346.81;1718475;83;21968;-39
2021/03/24 02:07:36;;;;;;;2.60;1.65;;;;;;;-0.65;55.11;99354.53;1718361;83;21081;-39
2021/03/24 02:10:25;;;;;;;2.92;2.00;;;;;;;-0.65;55.12;99347.88;1718596;83;21186;-38
2021/03/24 02:12:59;;;;;;;2.92;1.40;;;;;;;-0.72;55.23;99352.75;1718671;83;21122;-38
2021/03/24 02:15:37;;;;;;;2.42;1.77;;;;;;;-0.74;55.32;99350.92;1684170;83;21134;-38
2021/03/24 02:18:05;;;;;;;2.65;1.67;;;;;;;-0.75;55.21;99352.00;1718101;83;21222;-38
2021/03/24 02:20:42;;;;;;;2.83;1.90;;;;;;;-0.74;55.38;99350.13;1718232;83;21198;-39
2021/03/24 02:23:43;;;;;;;3.40;1.85;;;;;;;-0.71;55.43;99353.55;1717995;83;21146;-38
2021/03/24 02:26:35;;;;;;;3.40;1.80;;;;;;;-0.72;55.53;99350.62;1718081;83;21131;-38
2021/03/24 02:29:05;;;;;;;2.90;1.70;;;;;;;-0.77;55.64;99350.15;1718083;83;21229;-38
2021/03/24 02:31:33;;;;;;;2.33;1.63;;;;;;;-0.76;55.66;99358.93;1718437;83;21209;-39
2021/03/24 02:34:05;;;;;;;4.95;1.72;;;;;;;-0.77;55.70;99363.45;1718060;83;21581;-39
2021/03/24 02:36:33;;;;;;;3.08;1.80;;;;;;;-0.76;55.72;99362.38;1718139;83;21739;-38
2021/03/24 02:39:06;;;;;;;2.75;1.42;;;;;;;-0.76;55.68;99361.05;1718257;83;21146;-38
2021/03/24 02:41:34;;;;;;;2.67;1.70;;;;;;;-0.73;55.52;99364.50;1689862;83;21178;-39
2021/03/24 02:44:03;;;;;;;2.92;1.90;;;;;;;-0.73;55.54;99364.50;1718192;83;21388;-38
2021/03/24 02:46:32;;;;;;;1.80;1.57;;;;;;;-0.75;55.57;99361.31;1718087;82;21206;-38
2021/03/24 02:49:03;;;;;;;2.52;1.77;;;;;;;-0.76;55.69;99363.72;1688383;83;21616;-38
2021/03/24 02:51:31;;;;;;;2.85;1.82;;;;;;;-0.79;55.66;99370.16;1718143;83;21210;-38
2021/03/24 02:54:07;;;;;;;3.02;1.90;;;;;;;-0.82;55.86;99372.83;1713137;83;21130;-40
2021/03/24 02:56:35;;;;;;;2.60;1.80;;;;;;;-0.84;55.92;99372.34;1718056;83;21269;-39
2021/03/24 02:59:05;;;;;;;3.55;1.80;;;;;;;-0.82;55.96;99372.83;1717989;83;21505;-38
2021/03/24 03:01:44;;;;;;;2.55;1.80;;;;;;;-0.85;56.11;99376.07;1718114;83;21668;-39
2021/03/24 03:04:24;;;;;;;4.85;1.98;;;;;;;-0.87;56.06;99382.20;1718066;83;21651;-39
2021/03/24 03:06:56;;;;;;;3.67;1.92;;;;;;;-0.91;56.23;99382.52;1717979;83;21166;-38
2021/03/24 03:09:41;;;;;;;4.55;2.27;;;;;;;-0.94;56.23;99381.77;1718390;83;21360;-39
2021/03/24 03:12:30;;;;;;;2.85;1.75;;;;;;;-0.95;56.26;99384.16;1710124;83;20985;-39
2021/03/24 03:15:02;;;;;;;2.37;1.80;;;;;;;-0.93;56.28;99384.69;1719041;83;21648;-39
2021/03/24 03:17:37;;;;;;;3.10;1.98;;;;;;;-0.93;56.16;99386.81;1718789;83;22126;-39
2021/03/24 03:20:16;;;;;;;6.62;2.05;;;;;;;-0.93;56.33;99388.67;1718885;83;21146;-39
2021/03/24 03:22:52;;;;;;;4.53;1.98;;;;;;;-0.95;56.30;99389.48;1718652;83;21317;-39
2021/03/24 03:25:29;;;;;;;2.77;1.90;;;;;;;-0.96;56.34;99391.89;1692167;83;21170;-39
2021/03/24 03:27:59;;;;;;;4.45;2.42;;;;;;;-0.95;56.33;99387.62;1718824;83;21562;-39
2021/03/24 03:30:31;;;;;;;3.50;2.10;;;;;;;-0.90;56.22;99385.44;1718723;83;21190;-39
2021/03/24 03:33:01;;;;;;;3.62;2.40;;;;;;;-0.91;56.26;99385.98;1718863;83;21134;-39
2021/03/24 03:35:30;;;;;;;3.10;2.10;;;;;;;-0.91;56.45;99393.95;1718858;83;21433;-39
2021/03/24 03:38:00;;;;;;;2.95;2.00;;;;;;;-0.92;56.50;99395.59;1718873;83;21739;-40
2021/03/24 03:40:29;;;;;;;;;;;;;;;-0.91;56.56;99397.16;1695484;83;21699;-39
2021/03/24 03:42:57;;;;;;;4.95;1.80;;;;;;;-0.94;56.56;99396.40;1716145;83;20247;-40
2021/03/24 03:45:25;;;;;;;4.70;2.25;;;;;;;-1.02;56.66;99397.83;1733190;82;21131;-39
2021/03/24 03:47:53;;;;;;;2.95;1.92;;;;;;;-0.97;56.79;99400.97;1748591;81;21435;-39
2021/03/24 03:50:24;;;;;;;2.87;2.10;;;;;;;-0.97;56.83;99402.30;1748657;82;21627;-39
2021/03/24 03:53:28;;;;;;;3.45;2.17;;;;;;;-0.95;56.60;99406.78;1748660;82;21190;-39
2021/03/24 03:56:04;;;;;;;4.12;2.02;;;;;;;-0.95;56.63;99404.92;1748674;81;21123;-39
2021/03/24 03:58:41;;;;;;;5.17;2.30;;;;;;;-0.94;56.54;99403.05;1748663;82;21151;-40
2021/03/24 04:01:28;;;;;;;3.10;2.27;;;;;;;-0.93;56.61;99405.98;1748710;81;21196;-39
2021/03/24 04:04:42;;;;;;;3.30;2.47;;;;;;;-0.91;56.49;99407.27;1721280;82;21198;-40
2021/03/24 04:07:26;;;;;;;2.83;2.08;;;;;;;-0.91;56.61;99405.14;1748506;82;21621;-39
2021/03/24 04:09:55;;;;;;;5.08;2.52;;;;;;;-0.93;56.80;99412.09;1748598;81;21131;-39
2021/03/24 04:12:25;;;;;;;3.92;2.55;;;;;;;-0.89;56.81;99421.63;1748859;82;21601;-40
2021/03/24 04:14:53;;;;;;;;;;;;;;;-0.88;56.66;99423.22;1751338;82;22289;-39
2021/03/24 04:17:27;;;;;;;4.03;2.33;;;;;;;-0.87;56.64;99415.47;1748524;82;20253;-39
2021/03/24 04:19:57;;;;;;;4.42;2.30;;;;;;;-0.94;56.76;99422.47;1748587;82;20980;-39
2021/03/24 04:22:28;;;;;;;3.87;2.00;;;;;;;-0.92;56.63;99418.98;1721716;82;21159;-39
2021/03/24 04:24:58;;;;;;;4.00;2.22;;;;;;;-0.87;56.56;99420.25;1745806;82;21187;-40
2021/03/24 04:27:31;;;;;;;5.55;2.40;;;;;;;-0.85;56.55;99422.64;1748610;82;21203;-39
2021/03/24 04:30:08;;;;;;;4.50;2.67;;;;;;;-0.87;56.54;99424.02;1748637;82;20992;-39
2021/03/24 04:32:37;;;;;;;3.87;2.15;;;;;;;-0.85;56.54;99426.63;1748614;81;21593;-39
2021/03/24 04:35:07;;;;;;;2.90;2.00;;;;;;;-0.83;56.43;99429.82;1721320;82;21275;-39
2021/03/24 04:37:44;;;;;;;3.50;2.37;;;;;;;-0.82;56.42;99430.05;1748733;82;21178;-40
2021/03/24 04:40:35;;;;;;;2.45;2.08;;;;;;;-0.81;56.58;99436.17;1721496;82;22089;-40
2021/03/24 04:43:16;;;;;;;2.37;1.85;;;;;;;-0.85;56.62;99446.59;1730772;82;21186;-40
2021/03/24 04:46:05;;;;;;;4.37;2.40;;;;;;;-0.87;56.74;99450.63;1748587;82;21107;-40
2021/03/24 04:48:44;;;;;;;3.40;2.37;;;;;;;-0.87;56.87;99456.72;1721740;82;21178;-40
2021/03/24 04:51:19;;;;;;;3.67;2.15;;;;;;;-0.90;56.81;99460.75;1748517;81;21189;-40
2021/03/24 04:54:05;;;;;;;4.70;2.10;;;;;;;-0.90;56.70;99459.95;1747907;82;21653;-40
2021/03/24 04:56:33;;;;;;;3.50;2.17;;;;;;;-0.86;56.81;99462.30;1744034;82;21023;-40
2021/03/24 04:59:01;;;;;;;3.80;2.20;;;;;;;-0.86;56.88;99460.97;1748613;82;21119;-40
2021/03/24 05:01:41;;;;;;;3.60;1.80;;;;;;;-0.80;56.70;99458.52;1748486;82;21126;-40
2021/03/24 05:04:24;;;;;;;4.58;2.30;;;;;;;-0.75;56.49;99461.66;1748424;82;21139;-40
2021/03/24 05:07:18;;;;;;;3.10;2.33;;;;;;;-0.68;56.44;99468.26;1748546;81;21378;-40
2021/03/24 05:09:48;;;;;;;4.15;2.10;;;;;;;-0.66;56.35;99471.41;1717681;83;21028;-40
2021/03/24 05:12:22;;;;;;;5.03;2.15;;;;;;;-0.62;56.34;99471.09;1739473;82;21166;-40
2021/03/24 05:15:06;;;;;;;2.50;1.98;;;;;;;-0.59;56.14;99471.88;1747788;81;21154;-40
2021/03/24 05:17:35;;;;;;;4.58;2.15;;;;;;;-0.62;56.26;99472.43;1747751;82;21194;-40
2021/03/24 05:20:15;;;;;;;3.23;2.20;;;;;;;-0.62;56.17;99479.62;1747977;81;21208;-40
2021/03/24 05:22:45;;;;;;;3.45;2.30;;;;;;;-0.60;56.22;99480.94;1747804;82;21613;-39
2021/03/24 05:25:18;;;;;;;3.27;2.35;;;;;;;-0.54;56.15;99483.81;1747747;82;21590;-39
2021/03/24 05:28:00;;;;;;;4.67;2.37;;;;;;;-0.49;56.11;99487.75;1747693;82;21167;-40
2021/03/24 05:30:34;;;;;;;3.40;2.33;;;;;;;-0.47;55.86;99493.56;1747667;82;21176;-40
2021/03/24 05:33:24;;;;;;;3.47;2.20;;;;;;;-0.44;56.09;99489.00;1747756;81;22289;-40
2021/03/24 05:36:24;;;;;;;2.77;2.33;;;;;;;-0.39;55.84;99483.38;1747792;82;21024;-40
2021/03/24 05:38:54;;;;;;;5.20;2.58;;;;;;;-0.36;55.80;99488.92;1747565;82;21067;-40
2021/03/24 05:41:44;;;;;;;3.62;2.40;;;;;;;-0.31;55.64;99488.07;1747697;81;21126;-40
2021/03/24 05:44:33;;;;;;;4.62;2.60;;;;;;;-0.25;55.63;99490.94;1720637;82;21170;-40
2021/03/24 05:47:25;;;;;;;4.65;2.55;;;;;;;-0.22;55.46;99493.02;1709920;82;21343;-40
2021/03/24 05:50:36;;;;;;;4.55;2.55;;;;;;;-0.16;55.30;99493.22;1747574;82;21589;-39
2021/03/24 05:53:28;;;;;;;3.83;2.70;;;;;;;-0.09;55.22;99486.98;1747666;82;21115;-39
2021/03/24 05:56:25;;;;;;;4.83;2.75;;;;;;;0.01;54.64;99488.19;1744082;82;21169;-39
2021/03/24 05:59:26;;;;;;;6.62;2.77;;;;;;;0.07;54.55;99492.38;1718410;82;21573;-40
2021/03/24 06:02:11;;;;;;;5.10;2.58;;;;;;;0.17;54.63;99490.91;1717741;83;21381;-39
2021/03/24 06:04:45;;;;;;;4.10;2.60;;;;;;;0.23;54.33;99501.77;1717963;82;21190;-39
2021/03/24 06:07:43;;;;;;;3.62;2.75;;;;;;;0.32;54.10;99508.04;1718032;83;21028;-40
2021/03/24 06:10:45;;;;;;;3.50;2.77;;;;;;;0.43;53.62;99502.82;1710968;83;21131;-39
2021/03/24 06:13:52;;;;;;;3.90;2.67;;;;;;;0.51;53.63;99509.36;1705261;83;21182;-40
2021/03/24 06:16:57;;;;;;;6.85;3.00;;;;;;;0.59;53.29;99515.91;1705149;84;21287;-40
2021/03/24 06:20:17;;;;;;;4.33;2.87;;;;;;;0.63;53.05;99516.37;1705041;83;21095;-39
2021/03/24 06:23:20;;;;;;;5.00;2.60;;;;;;;0.62;52.97;99518.81;1705390;84;21146;-39
2021/03/24 06:26:03;;;;;;;3.55;2.60;;;;;;;0.67;53.11;99517.94;1705202;84;21155;-39
2021/03/24 06:29:04;;;;;;;5.28;2.83;;;;;;;0.69;52.63;99522.42;1659518;84;21167;-40
2021/03/24 06:31:58;;;;;;;3.37;2.65;;;;;;;0.79;52.77;99515.60;1840890;78;22730;-40
2021/03/24 06:34:52;;;;;;;5.30;2.70;;;;;;;0.76;52.13;99522.86;1816106;79;21880;-39
2021/03/24 06:38:13;;;;;;;4.50;3.12;;;;;;;0.83;52.34;99520.60;1816172;79;21356;-39
2021/03/24 06:41:09;;;;;;;6.28;3.05;;;;;;;0.95;52.16;99513.48;1816133;78;21020;-39
2021/03/24 06:44:08;;;;;;;3.60;3.00;;;;;;;1.09;51.41;99528.46;1816153;78;21281;-39
2021/03/24 06:47:14;;;;;;;4.90;2.92;;;;;;;1.19;51.39;99524.28;1816344;77;20984;-39
2021/03/24 06:49:57;;;;;;;5.50;3.00;;;;;;;1.26;50.94;99531.90;1816137;79;21042;-39
2021/03/24 06:52:55;;;;;;;4.47;2.85;;;;;;;1.31;51.24;99531.27;1806527;79;21280;-39
2021/03/24 06:56:19;;;;;;;4.78;3.00;;;;;;;1.47;51.10;99535.02;1816076;78;20990;-39
2021/03/24 06:59:33;;;;;;;4.08;3.15;;;;;;;1.66;50.90;99527.70;1816193;79;21690;-39
2021/03/24 07:02:26;;;;;;;4.50;2.95;;;;;;;1.87;49.79;99530.78;1816069;78;20964;-39
2021/03/24 07:05:30;;;;;;;5.03;2.72;;;;;;;1.98;49.25;99527.63;1816233;79;21601;-39
2021/03/24 07:08:23;;;;;;;4.47;2.95;;;;;;;2.02;48.93;99523.80;1783939;80;21190;-39
2021/03/24 07:11:14;;;;;;;5.12;3.22;;;;;;;2.08;49.18;99529.30;1783921;80;21173;-39
2021/03/24 07:13:57;;;;;;;8.90;3.50;;;;;;;2.15;48.67;99530.47;1784017;80;21130;-39
2021/03/24 07:17:12;;;;;;;4.22;3.25;;;;;;;2.28;48.70;99523.49;1784088;80;21544;-39
2021/03/24 07:20:32;;;;;;;5.85;3.33;;;;;;;2.44;48.61;99522.63;1804497;79;21718;-40
2021/03/24 07:23:25;;;;;;;6.20;3.40;;;;;;;2.63;47.72;99524.59;1813607;79;21328;-40
2021/03/24 07:26:11;;;;;;;6.60;2.98;;;;;;;2.81;47.94;99537.02;1812548;79;21027;-40
2021/03/24 07:28:56;;;;;;;6.10;3.35;;;;;;;2.98;46.55;99526.45;1813724;79;21601;-41
2021/03/24 07:32:06;;;;;;;5.90;3.00;;;;;;;3.04;46.39;99537.28;1809107;79;21000;-40
2021/03/24 07:34:48;;;;;;;5.87;3.15;;;;;;;3.12;46.12;99545.13;1808303;79;21653;-40
2021/03/24 07:37:40;;;;;;;4.70;3.20;;;;;;;3.20;45.80;99533.66;1808086;79;21271;-40
2021/03/24 07:40:38;;;;;;;3.92;2.92;;;;;;;3.31;45.52;99543.58;1807972;79;21151;-40
2021/03/24 07:43:46;;;;;;;5.55;2.72;;;;;;;3.42;44.94;99532.85;1807633;79;21597;-40
2021/03/24 07:46:58;;;;;;;5.53;3.30;;;;;;;3.48;44.61;99551.73;1834955;78;21535;-40
2021/03/24 07:50:16;;;;;;;3.90;2.90;;;;;;;3.57;44.87;99540.50;1769104;80;21139;-40
2021/03/24 07:53:19;;;;;;;4.17;3.10;;;;;;;3.62;44.42;99551.09;1772617;81;21266;-40
2021/03/24 07:56:08;;;;;;;4.75;3.35;;;;;;;3.70;44.61;99547.64;1769074;81;21179;-41
2021/03/24 07:58:48;;;;;;;4.03;3.30;;;;;;;3.86;44.66;99547.48;1724817;80;21131;-40
2021/03/24 08:01:42;;;;;;;3.35;2.85;;;;;;;4.03;44.03;99556.66;1768456;81;21602;-40
2021/03/24 08:04:35;;;;;;;5.08;3.35;;;;;;;4.14;44.07;99552.61;1772844;81;21547;-40
2021/03/24 08:07:21;;;;;;;4.78;3.35;;;;;;;4.24;43.90;99549.09;1759074;81;22291;-40
2021/03/24 08:10:22;;;;;;;6.87;3.45;;;;;;;4.39;43.66;99541.14;1772633;81;21135;-40
2021/03/24 08:13:23;;;;;;;3.47;3.12;;;;;;;4.50;43.56;99546.45;1769107;81;21044;-40
2021/03/24 08:16:09;;;;;;;4.90;3.45;;;;;;;4.55;43.41;99542.82;1772523;81;21211;-41
2021/03/24 08:19:07;;;;;;;4.95;3.70;;;;;;;4.63;43.11;99552.22;1769007;81;21366;-40
2021/03/24 08:22:09;;;;;;;4.55;3.42;;;;;;;4.76;43.77;99543.76;1772813;81;22319;-40
2021/03/24 08:24:43;;;;;;;5.50;3.55;;;;;;;4.88;43.26;99547.96;1769089;80;21370;-40
2021/03/24 08:27:40;;;;;;;4.15;3.70;;;;;;;4.99;43.70;99563.97;1772713;81;21183;-40
2021/03/24 08:30:23;;;;;;;4.40;3.50;;;;;;;5.12;43.24;99564.93;1769644;80;21182;-40
2021/03/24 08:33:03;;;;;;;5.08;3.70;;;;;;;5.24;42.95;99558.34;1849412;77;21107;-40
2021/03/24 08:35:40;;;;;;;6.15;3.85;;;;;;;5.27;42.65;99565.78;1777256;80;21396;-40
2021/03/24 08:38:36;;;;;;;5.80;3.98;;;;;;;5.17;42.68;99567.45;1777524;80;21040;-40
2021/03/24 08:41:18;;;;;;;6.37;4.58;;;;;;;5.12;43.05;99561.69;1777547;80;21394;-40
2021/03/24 08:44:17;;;;;;;4.75;4.03;;;;;;;4.86;43.32;99521.16;1849311;77;21158;-40
2021/03/24 08:47:17;;;;;;;6.97;4.30;;;;;;;5.28;43.30;99565.99;1777548;80;21106;-40
2021/03/24 08:49:49;;;;;;;5.22;4.08;;;;;;;5.55;42.63;99561.60;1777713;80;22120;-40
2021/03/24 08:52:46;;;;;;;5.92;4.80;;;;;;;5.74;42.14;99561.77;1849334;77;21039;-40
2021/03/24 08:55:41;;;;;;;5.45;4.00;;;;;;;5.90;42.33;99565.55;1777692;80;21044;-40
2021/03/24 08:58:23;;;;;;;5.08;4.17;;;;;;;6.03;41.56;99571.26;1777490;80;21067;-40
2021/03/24 09:01:10;;;;;;;7.03;4.53;;;;;;;6.15;41.50;99571.93;1833085;77;21181;-40
2021/03/24 09:04:08;;;;;;;5.58;4.28;;;;;;;6.28;41.37;99573.59;1777684;80;21186;-40
2021/03/24 09:07:09;;;;;;;6.47;4.10;;;;;;;6.41;41.00;99581.42;1745800;82;21192;-40
2021/03/24 09:10:19;;;;;;;7.35;4.15;;;;;;;6.54;40.88;99579.04;1755342;81;21174;-40
2021/03/24 09:12:55;;;;;;;5.17;3.85;;;;;;;6.64;40.38;99585.16;1752256;81;21122;-40
2021/03/24 09:15:31;;;;;;;7.60;4.58;;;;;;;6.81;39.93;99587.74;1747910;80;21506;-40
2021/03/24 09:18:21;;;;;;;5.42;3.92;;;;;;;6.97;39.52;99579.30;1807711;79;21372;-40
2021/03/24 09:21:00;;;;;;;6.03;4.20;;;;;;;7.11;39.69;99581.72;1777880;80;21557;-40
2021/03/24 09:23:47;;;;;;;6.03;4.13;;;;;;;7.25;39.20;99585.71;1747898;80;21614;-41
2021/03/24 09:26:46;;;;;;;4.65;3.87;;;;;;;7.32;38.79;99575.16;1815881;79;21390;-40
2021/03/24 09:29:38;;;;;;;4.97;3.90;;;;;;;7.49;38.68;99584.20;1777641;80;21146;-40
2021/03/24 09:32:37;;;;;;;4.40;3.70;;;;;;;7.54;38.26;99580.74;1740440;82;21202;-40
2021/03/24 09:35:28;;;;;;;5.17;3.90;;;;;;;7.58;38.47;99580.30;1738559;82;21074;-40
2021/03/24 09:38:11;;;;;;;6.90;3.90;;;;;;;7.79;38.52;99586.98;1738571;82;21517;-40
2021/03/24 09:40:45;;;;;;;6.55;3.83;;;;;;;7.99;37.90;99577.98;1738361;82;21157;-40
2021/03/24 09:43:33;;;;;;;6.62;4.50;;;;;;;8.19;37.80;99579.80;1738512;82;21142;-40
2021/03/24 09:46:17;;;;;;;5.78;4.15;;;;;;;8.38;36.92;99573.06;1740478;81;21213;-40
2021/03/24 09:48:54;;;;;;;5.25;3.80;;;;;;;8.45;36.77;99574.08;1741802;82;21594;-40
2021/03/24 09:51:43;;;;;;;6.20;4.30;;;;;;;8.57;36.95;99567.30;1741791;82;22277;-40
2021/03/24 09:54:23;;;;;;;5.22;4.20;;;;;;;8.71;36.19;99571.77;1717911;82;21199;-40
2021/03/24 09:57:10;;;;;;;6.10;4.08;;;;;;;8.84;37.03;99577.16;1806245;78;21602;-40
2021/03/24 09:59:52;;;;;;;5.72;4.08;;;;;;;8.97;35.66;99579.48;1802875;78;21214;-41
2021/03/24 10:02:32;;;;;;;4.90;3.33;;;;;;;9.08;35.53;99575.16;1808393;79;21610;-41
2021/03/24 10:05:06;;;;;;;4.85;3.87;;;;;;;9.21;35.68;99567.78;1840132;78;21123;-40
2021/03/24 10:07:42;;;;;;;6.55;3.80;;;;;;;9.38;35.31;99570.20;1839537;78;21043;-40
2021/03/24 10:10:21;;;;;;;7.08;4.17;;;;;;;9.43;35.50;99559.69;1757784;81;21199;-40
2021/03/24 10:13:19;;;;;;;5.92;4.08;;;;;;;9.43;35.60;99568.59;1741176;82;22366;-40
2021/03/24 10:15:55;;;;;;;7.97;4.00;;;;;;;9.40;35.37;99568.47;1741122;82;21044;-40
2021/03/24 10:18:36;;;;;;;5.15;4.15;;;;;;;9.35;35.16;99564.10;1741492;82;21045;-40
2021/03/24 10:21:13;;;;;;;5.15;3.83;;;;;;;9.14;35.32;99573.01;1750208;82;21879;-40
2021/03/24 10:23:49;;;;;;;7.37;4.17;;;;;;;9.07;35.98;99573.59;1750189;81;21037;-40
2021/03/24 10:26:50;;;;;;;4.25;3.85;;;;;;;9.14;35.64;99571.09;1750141;81;21261;-40
2021/03/24 10:29:26;;;;;;;5.85;3.98;;;;;;;9.22;35.63;99568.56;1750077;82;21107;-40
2021/03/24 10:32:21;;;;;;;10.58;7.60;;;;;;;9.22;35.66;99542.87;1767988;80;21016;-41
2021/03/24 10:34:52;;;;;;;9.70;6.92;;;;;;;9.38;35.48;99574.81;1783079;79;21594;-40
2021/03/24 10:37:53;;;;;;;9.53;6.65;;;;;;;9.42;35.80;99576.48;1782905;80;21170;-40
2021/03/24 10:40:33;;;;;;;6.85;4.30;;;;;;;9.43;35.36;99574.56;1789998;79;21370;-40
2021/03/24 10:43:11;;;;;;;6.22;4.50;;;;;;;9.06;35.21;99575.27;1801379;79;21166;-41
2021/03/24 10:45:49;;;;;;;4.92;3.77;;;;;;;8.61;35.45;99579.02;1782436;79;21039;-41
2021/03/24 10:48:24;;;;;;;6.08;4.40;;;;;;;8.24;36.50;99576.08;1783237;79;21150;-41
2021/03/24 10:51:18;;;;;;;6.62;4.35;;;;;;;7.83;37.16;99576.53;1800458;79;21566;-41
2021/03/24 10:53:45;;;;;;;5.12;4.28;;;;;;;7.55;37.71;99583.64;1783296;80;21437;-40
2021/03/24 10:56:34;;;;;;;7.25;4.78;;;;;;;7.26;37.99;99581.87;1755037;80;21003;-40
2021/03/24 10:59:32;;;;;;;4.97;3.80;;;;;;;7.12;38.36;99583.27;1783194;80;21031;-41
2021/03/24 11:02:15;;;;;;;6.22;4.47;;;;;;;7.27;39.15;99569.97;1783345;80;21149;-41
2021/03/24 11:05:08;;;;;;;8.15;4.42;;;;;;;7.81;38.09;99565.83;1783349;80;21127;-40
2021/03/24 11:07:49;;;;;;;4.60;3.80;;;;;;;8.17;37.18;99575.31;1783406;79;21626;-41
2021/03/24 11:10:43;;;;;;;7.47;3.98;;;;;;;8.23;37.20;99576.64;1783222;79;21130;-40
2021/03/24 11:13:26;;;;;;;4.70;3.90;;;;;;;8.25;37.40;99579.80;1786109;79;21059;-41
2021/03/24 11:16:14;;;;;;;5.65;3.60;;;;;;;8.41;36.64;99573.75;1750677;80;21187;-40
2021/03/24 11:18:49;;;;;;;4.85;4.10;;;;;;;8.50;35.77;99553.59;1780536;80;21163;-40
2021/03/24 11:21:24;;;;;;;6.00;3.90;;;;;;;8.84;36.44;99567.70;1793979;79;21111;-41
2021/03/24 11:23:58;;;;;;;5.55;4.62;;;;;;;9.26;35.94;99568.09;1752058;81;21064;-41
2021/03/24 11:26:51;;;;;;;5.35;3.70;;;;;;;9.52;34.75;99575.19;1708266;80;20981;-41
2021/03/24 11:29:22;;;;;;;4.85;3.87;;;;;;;9.47;34.48;99564.62;1751566;81;21162;-41
2021/03/24 11:31:58;;;;;;;4.83;3.87;;;;;;;9.40;34.95;99565.77;1771415;80;21204;-41
2021/03/24 11:34:49;;;;;;;4.08;3.50;;;;;;;9.46;35.27;99561.69;1757989;81;21787;-41
2021/03/24 11:37:52;;;;;;;4.50;3.40;;;;;;;9.39;34.29;99562.27;1816032;79;21166;-41
2021/03/24 11:40:45;;;;;;;5.25;3.70;;;;;;;9.11;34.92;99569.62;1816005;79;21150;-40
2021/03/24 11:43:27;;;;;;;5.03;3.37;;;;;;;8.93;35.35;99556.17;1808796;78;23339;-40
2021/03/24 11:46:22;;;;;;;4.12;3.20;;;;;;;8.80;35.16;99555.44;1806840;79;21028;-39
2021/03/24 11:49:09;;;;;;;4.65;3.12;;;;;;;8.76;35.22;99551.06;1811612;79;21249;-40
2021/03/24 11:51:57;;;;;;;4.75;3.50;;;;;;;8.68;35.33;99558.95;1784050;80;20980;-40
2021/03/24 11:55:01;;;;;;;4.67;3.00;;;;;;;8.57;35.39;99557.05;1783220;80;21031;-40
2021/03/24 11:58:03;;;;;;;5.42;3.20;;;;;;;8.31;35.31;99564.19;1783900;80;20996;-40
2021/03/24 12:00:50;;;;;;;6.12;3.33;;;;;;;8.13;35.64;99560.13;1751879;81;21022;-40
2021/03/24 12:03:56;;;;;;;3.70;2.90;;;;;;;8.11;35.87;99561.80;1752320;81;21580;-40
2021/03/24 12:06:45;;;;;;;5.33;3.42;;;;;;;8.11;35.58;99557.75;1777186;80;21031;-40
2021/03/24 12:09:26;;;;;;;3.27;2.87;;;;;;;8.27;35.80;99565.41;1783421;80;21039;-40
2021/03/24 12:12:15;;;;;;;4.05;2.77;;;;;;;8.73;34.45;99556.01;1787024;79;21157;-41
2021/03/24 12:14:48;;;;;;;3.07;2.60;;;;;;;9.22;33.80;99548.28;1803244;79;21150;-41
2021/03/24 12:17:35;;;;;;;5.62;3.00;;;;;;;9.58;33.30;99549.45;1797915;79;21427;-41
2021/03/24 12:20:12;;;;;;;3.20;2.77;;;;;;;9.92;32.91;99556.86;1789404;78;21043;-41
2021/03/24 12:22:54;;;;;;;3.90;2.90;;;;;;;10.34;32.46;99557.13;1785385;80;21060;-41
2021/03/24 12:25:26;;;;;;;5.37;3.05;;;;;;;10.99;32.04;99549.20;1787054;80;21601;-41
2021/03/24 12:28:01;;;;;;;3.12;2.65;;;;;;;11.52;29.71;99535.89;1786916;80;21123;-41
2021/03/24 12:30:47;;;;;;;3.75;2.80;;;;;;;11.31;29.39;99553.92;1784539;80;21377;-41
2021/03/24 12:33:22;;;;;;;5.08;3.10;;;;;;;10.86;30.15;99558.06;1802081;79;21043;-41
2021/03/24 12:36:13;;;;;;;4.47;3.10;;;;;;;10.54;30.98;99555.25;1787165;79;21024;-40
2021/03/24 12:38:56;;;;;;;4.92;3.00;;;;;;;10.45;31.01;99543.83;1787966;79;21632;-41
2021/03/24 12:41:40;;;;;;;3.62;3.00;;;;;;;10.57;31.12;99551.83;1753589;80;21624;-41
2021/03/24 12:44:30;;;;;;;4.58;3.30;;;;;;;10.98;30.68;99552.30;1724507;82;21199;-41
2021/03/24 12:47:03;;;;;;;4.37;3.15;;;;;;;11.39;29.97;99546.68;1737397;82;21186;-41
2021/03/24 12:49:34;;;;;;;4.00;3.40;;;;;;;11.49;29.57;99548.23;1738322;82;21143;-40
2021/03/24 12:52:34;;;;;;;4.35;3.20;;;;;;;11.49;29.70;99545.52;1708854;84;21145;-40